Victor Advincula

Chefscout - Sporting Cristal
11 Mär 2027
Donnerstag
Verarbeitung

Persönlichkeit

Anpassungsfähigkeit (4) Ehrgeiz (11) Kontroverse (11) Loyalität (13) Druck (11) Professionalität (9) Fairness (17) Temperament (2)

Profil

Trainerstil Demokratisch
Lizenz Kontinentale B
Entschlossenheit 13
Menschenführung 4
Motivation 9
Disziplin 9
Arbeitszufriedenheit
59%
Ermüdung
0%
Rolle Chefscout
Gehalt 87.6K p/W
Vertrag 14.03.2030

Leistung

Verhalten Gut
Trainingseffektivität
25%
Spielerentwicklung
35%
Verletzungsprävention
35%
Taktische Umsetzung
55%

Letzte Ereignisse

Empfahl ein Transferziel jetzt
Nahm an einer Scouting-Besprechung teil jetzt
Nahm an einer Scouting-Besprechung teil jetzt
Nahm an einer Scouting-Besprechung teil jetzt
Nahm an einer Scouting-Besprechung teil jetzt
Nahm an einer Scouting-Besprechung teil jetzt
Nahm an einer Scouting-Besprechung teil jetzt
Nahm an einer Scouting-Besprechung teil jetzt

Aktuell beobachtet

170
Spieler Verein Status Fähigkeit Vertrauen Beobachtet Zuletzt beobachtet Letzte Stimme
Bandar Yaqoob ES Setif Aktiv 136 / 141 40% 4 10.03.2027 -
Bojan Radulović Huddersfield Town Aktiv 114 / 111 40% 2 10.03.2027 -
Kwame Opoku Asante Kotoko Aktiv 110 / 115 40% 5 08.03.2027 -
Iwan Morgan Grimsby Town Aktiv 112 / 117 40% 1 08.03.2027 -
Jayden Wareham Barnet Aktiv 92 / 101 40% 1 08.03.2027 -
Job Ochieng Real Sociedad Aktiv 106 / 103 40% 5 07.03.2027 -
Kelly Saravanan Salford City Aktiv 97 / 130 40% 3 07.03.2027 -
Mees Rijks Bristol Rovers Aktiv 113 / 111 40% 2 07.03.2027 -
Simone Kosijer Triestina Aktiv 102 / 97 40% 1 07.03.2027 -
Taras Mykhavko Dynamo Kyiv Aktiv 112 / 138 40% 1 07.03.2027 -
Hlompho Lorch Ajax Cape Town Aktiv 90 / 99 40% 1 07.03.2027 -
Harry Leonard Peterborough United Aktiv 109 / 123 40% 1 05.03.2027 -
Papa Ndiaga Yade Oleksandriya Aktiv 113 / 124 40% 1 05.03.2027 -
Mandla Mahlangu Ajax Cape Town Aktiv 101 / 97 40% 8 04.03.2027 -
Etiosa Ighodaro Kaizer Chiefs Aktiv 102 / 94 40% 6 04.03.2027 -
Willem Geubbels Lecce Aktiv 123 / 142 40% 1 04.03.2027 -
Isaac Essien WAFA Aktiv 86 / 111 40% 2 03.03.2027 -
Christian Saydee Wigan Athletic Aktiv 124 / 126 40% 2 03.03.2027 -
Anthony Okachi Great Olympics Aktiv 100 / 104 40% 8 02.03.2027 -
Lewis McCann Fleetwood Town Aktiv 99 / 119 40% 1 02.03.2027 -
Ekain Orobengoa Real Sociedad Aktiv 95 / 111 40% 2 01.03.2027 -
John Yeboah Venezia Aktiv 127 / 139 40% 1 01.03.2027 -
Keagan Tau Ajax Cape Town Aktiv 92 / 120 40% 1 01.03.2027 -
Jofre Torrents Ajax Aktiv 109 / 127 40% 1 01.03.2027 -
Will Lankshear Middlesbrough Aktiv 135 / 115 40% 3 26.02.2027 -
Ilyas Ansah Hull City Aktiv 123 / 118 40% 3 26.02.2027 -
Dom Ballard Leyton Orient Aktiv 113 / 131 40% 1 26.02.2027 -
Akor Adams Venezia Aktiv 155 / 134 40% 3 25.02.2027 -
Robert Mizo Ashanti Gold Aktiv 91 / 106 40% 4 24.02.2027 -
Tyrese Campbell Sheffield United Aktiv 134 / 107 40% 2 24.02.2027 -
Aune Heggebø West Bromwich Albion Aktiv 142 / 135 40% 2 24.02.2027 -
José Martínes CSKA 1948 Aktiv 106 / 102 40% 2 22.02.2027 -
Marezi Portsmouth Aktiv 127 / 127 40% 2 22.02.2027 -
Joe Gelhardt Hull City Aktiv 128 / 111 40% 2 21.02.2027 -
Louis Appéré Cambridge United Aktiv 110 / 80 40% 1 21.02.2027 -
Thulani Erasmus Platinum Stars Aktiv 113 / 87 40% 3 19.02.2027 -
Jens Odgaard Bologna Aktiv 151 / 122 40% 2 18.02.2027 -
Dávid Strelec Middlesbrough Aktiv 139 / 148 40% 3 18.02.2027 -
Malik Mothersille Stockport County Aktiv 117 / 104 40% 1 18.02.2027 -
Yousef Salech Cardiff City Aktiv 113 / 141 40% 1 17.02.2027 -
Morgan Whittaker Middlesbrough Aktiv 142 / 133 40% 1 17.02.2027 -
Luis Vázquez Birmingham Aktiv 126 / 139 40% 3 16.02.2027 -
Kenan Dervišagić Floriana Aktiv 110 / 113 40% 1 15.02.2027 -
Gonzalo Plata Dinamo Moscow Aktiv 145 / 122 40% 3 13.02.2027 -
Aaron Connolly Leyton Orient Aktiv 123 / 130 40% 1 13.02.2027 -
Lee Bonis Chesterfield Aktiv 94 / 87 40% 1 12.02.2027 -
Tom Cannon Sheffield United Aktiv 120 / 133 40% 1 10.02.2027 -
Rhian Brewster Oxford United Aktiv 133 / 106 40% 1 09.02.2027 -
Mohammed Yahaya Great Olympics Aktiv 82 / 101 40% 2 07.02.2027 -
Lorent Tolaj Plymouth Argyle Aktiv 129 / 111 40% 1 07.02.2027 -
Danyil Alefirenko Chornomorets Aktiv 102 / 109 40% 1 05.02.2027 -
Bongani Mothiba SuperSport United Aktiv 74 / 74 40% 3 04.02.2027 -
Brayan Gil Baltika Aktiv 125 / 138 40% 6 03.02.2027 Beobachten
Rivaldo Grobler Free State Stars Aktiv 83 / 106 40% 1 03.02.2027 -
Ronwen Phiri Platinum Stars Aktiv 87 / 112 40% 1 03.02.2027 -
Tomy Carbonell Real Sociedad Aktiv 113 / 129 40% 1 03.02.2027 -
Cemran Dansin Orlando Pirates Aktiv 109 / 101 40% 1 02.02.2027 -
Riley Owen Trento Aktiv 101 / 123 40% 1 02.02.2027 -
Vasilije Novičić IMT Aktiv 100 / 113 40% 1 02.02.2027 -
Daniel Vernattus Metalist Aktiv 92 / 117 40% 1 01.02.2027 -
Denys Smetana Nyva Aktiv 94 / 91 40% 1 01.02.2027 -
Davide Bartesaghi AC Milan Aktiv 143 / 115 40% 1 01.02.2027 -
Alexis Cuello San Lorenzo Aktiv 121 / 128 40% 2 29.01.2027 -
Agustín Medina Valencia Aktiv 104 / 128 40% 1 29.01.2027 -
Maxim Radchenko Rostov Aktiv 88 / 102 40% 1 29.01.2027 -
Martim Cunha Porto Aktiv 93 / 123 40% 1 29.01.2027 -
Yaw Mensah Hasaacas Aktiv 93 / 68 40% 1 27.01.2027 -
Ramiro Ruiz Rodríguez Atlético Tucumán Aktiv 126 / 125 40% 1 27.01.2027 -
Arkaitz Mariezkurrena Real Sociedad Aktiv 107 / 138 40% 6 26.01.2027 Beobachten
Keagan Mokoena Free State Stars Aktiv 102 / 99 40% 1 26.01.2027 -
Miles Leaburn Charlton Athletic Aktiv 131 / 140 40% 1 26.01.2027 -
Carlos Zepeda Strogino Aktiv 84 / 101 40% 3 25.01.2027 -
Alexandr Rudenko Lokomotiv Moscow Aktiv 131 / 115 40% 1 24.01.2027 -
Yaroslav Gladyshev Dinamo Moscow Aktiv 134 / 122 40% 3 22.01.2027 -
Gilson Benchimol Akron Aktiv 118 / 117 40% 1 22.01.2027 -
Ignacio Lago Colón Aktiv 124 / 131 40% 3 19.01.2027 -
Evidence Makgopa Orlando Pirates Aktiv 119 / 103 40% 5 18.01.2027 -
Anderson Gutiérrez Chelyabinsk Aktiv 88 / 109 40% 1 18.01.2027 -
Andrés Dieppa Metalurh Zaporizhzhia Aktiv 100 / 92 40% 2 17.01.2027 -
Ruben van Bommel Ferencvaros Aktiv 145 / 154 40% 2 16.01.2027 -
Tedi Cara LNZ Aktiv 113 / 118 40% 1 16.01.2027 -
Wandile Duba Maritzburg United Aktiv 95 / 125 40% 4 15.01.2027 -
Yussif Saidu Zaragoza Aktiv 124 / 116 40% 1 15.01.2027 -
Ignacio Ovando Rosario Central Aktiv 102 / 109 40% 1 15.01.2027 -
Mauro Valiente Estudiantes Aktiv 106 / 121 40% 1 15.01.2027 -
Nicolás Cordero Aldosivi Aktiv 119 / 130 40% 2 13.01.2027 -
Jonathan Okoronkwo Torpedo Moscow Aktiv 108 / 110 40% 1 13.01.2027 -
Santiago Sala Güemes Aktiv 114 / 117 40% 1 10.01.2027 -
Luca Martínez Dupuy Godoy Cruz Aktiv 115 / 133 40% 1 09.01.2027 -
Agustín Módica Gimnasia y Esgrima Aktiv 112 / 129 40% 1 09.01.2027 -
Brayan León Mamelodi Sundowns Aktiv 110 / 134 40% 1 08.01.2027 -
Dean Erasmus Platinum Stars Aktiv 103 / 94 40% 2 05.01.2027 -
Ignacio Perruzzi San Lorenzo Aktiv 117 / 131 40% 2 05.01.2027 -
Raymond Agyemang Aduana Stars Aktiv 84 / 101 40% 1 28.12.2026 -
Enzo Cardozo Almirante Brown Aktiv 103 / 116 40% 1 23.12.2026 -
Lucas Jetten Cambuur Aktiv 104 / 131 40% 1 04.12.2026 -
Cheveyo Tsawa Club Brugge Aktiv 122 / 133 40% 1 04.12.2026 -
Santiago Sosa Yung Sevilla Aktiv 106 / 146 40% 2 03.12.2026 -
Christos Mouzakitis Hull City Aktiv 121 / 119 40% 1 03.12.2026 -
Lewis Morgan SuperSport United Bericht bereit 126 / 126 67% 1 01.12.2026 Befürworten
Jonás Luna Santa Clara Aktiv 104 / 111 40% 2 28.11.2026 -
Krisztofer Horváth Ujpest Aktiv 119 / 100 40% 1 28.11.2026 Mehr Infos nötig
Matías Galarza Talleres Aktiv 132 / 126 40% 2 27.11.2026 -
José Paradela Cruz Azul Aktiv 145 / 123 40% 2 27.11.2026 -
Themba Ngcobo SuperSport United Aktiv 131 / 110 40% 1 25.11.2026 -
Radek Šiler Podbrezova Aktiv 102 / 124 40% 1 25.11.2026 -
Everton Bala Levski Aktiv 116 / 108 40% 2 23.11.2026 -
Tio Cipot NK Maribor Aktiv 119 / 117 40% 2 23.11.2026 -
Kein Sato FC Tokyo Verloren 140 / 116 40% 2 23.11.2026 -
Sergio Arribas Almería Aktiv 128 / 126 40% 1 23.11.2026 -
Daniel Karlsbakk Sarpsborg 08 Aktiv 126 / 126 40% 3 17.11.2026 Beobachten
Ammar Ramadan DAC Dunajska Streda Aktiv 130 / 131 40% 3 17.11.2026 Beobachten
Rodrigo González Aldosivi Aktiv 113 / 131 40% 1 17.11.2026 -
George Earthy Reading Aktiv 106 / 112 40% 1 15.11.2026 -
Enzo Avaro Odd Aktiv 119 / 95 40% 3 11.11.2026 -
Lucio Castillo Colegiales Aktiv 112 / 106 40% 1 11.11.2026 -
Elias Hoff Melkersen Stromsgodset Aktiv 114 / 123 40% 2 10.11.2026 -
Leonardo Vargas Dorados Aktiv 100 / 88 40% 1 07.11.2026 -
Antonio Galeano Remo Stars Aktiv 136 / 121 40% 1 04.11.2026 Mehr Infos nötig
Ole-Didrik Blomberg Bodo/Glimt Aktiv 141 / 116 40% 1 04.11.2026 Mehr Infos nötig
Gonzalo Zelarayán Belgrano Aktiv 122 / 113 40% 1 02.11.2026 Mehr Infos nötig
Reda Khadra Qarabag Aktiv 142 / 150 40% 1 01.11.2026 -
Samuel Anakwe Remo Stars Aktiv 88 / 73 40% 3 30.10.2026 -
Ola Brynhildsen Bodo/Glimt Aktiv 115 / 127 40% 2 29.10.2026 -
Fabricio Rojas Gimnasia y Tiro Aktiv 114 / 122 40% 2 29.10.2026 -
Tomás Attis Dinamo Minsk Aktiv 107 / 101 40% 1 27.10.2026 -
Gaspar Duarte Rosario Central Aktiv 123 / 131 40% 1 27.10.2026 -
Axel Pérez NK Domzale Aktiv 99 / 90 40% 4 26.10.2026 -
Germán Berterame Inter Miami CF Aktiv 141 / 123 40% 2 26.10.2026 -
Jacques Siwe Rubin Aktiv 109 / 104 40% 1 26.10.2026 -
Nathan Ordaz Metalist Aktiv 112 / 94 40% 1 22.10.2026 -
Joel Godoy Sarmiento Aktiv 118 / 117 40% 2 17.10.2026 -
Itumeleng Mothiba Black Aces Aktiv 106 / 116 40% 1 17.10.2026 -
Tiziano Croci Vélez Aktiv 85 / 92 40% 1 17.10.2026 -
Mandla Erasmus SuperSport United Aktiv 116 / 123 40% 1 17.10.2026 -
Max Svensson Penafiel Aktiv 109 / 126 40% 1 15.10.2026 -
Caleb Zady Sery Molde Aktiv 110 / 101 40% 1 15.10.2026 -
Nathan-Dylan Saliba Villarreal Aktiv 116 / 135 40% 1 15.10.2026 -
Yeangel Montero Naxxar Lions Aktiv 102 / 85 40% 2 12.10.2026 -
Alejandro Viniegra Fehervar Aktiv 96 / 114 40% 1 11.10.2026 -
Cristhian Medina Dinamo Brest Aktiv 98 / 101 40% 1 08.10.2026 -
Alan Cisnero Shukura Aktiv 88 / 100 40% 1 07.10.2026 -
Justin-Noël Kalumba Mallorca Aktiv 120 / 99 40% 1 05.10.2026 -
Ricky Atletico Venezuela Aktiv 100 / 99 40% 2 07.09.2026 -
Lautaro Ávila Racing Aktiv 98 / 88 40% 1 07.09.2026 -
Galo Galarza Estudiantes Aktiv 104 / 92 40% 1 07.09.2026 -
Genaro Giordani Gimnasia y Esgrima Aktiv 93 / 96 40% 1 20.08.2026 -
Thiago Martínez Defensa y Justicia Aktiv 97 / 117 40% 1 18.08.2026 -
Teun Gijselhart Deportivo La Coruña Aktiv 103 / 106 40% 2 15.08.2026 Mehr Infos nötig
Stefan Džodić Almería Aktiv 99 / 89 40% 2 15.08.2026 -
Maximiliano Duarte Independiente Aktiv 96 / 101 40% 1 15.08.2026 -
Santino Piccinetti Huracán Aktiv 100 / 103 40% 1 14.08.2026 -
Ezequiel Moya Chacarita Juniors Aktiv 100 / 99 40% 1 13.08.2026 -
Bautista Agostinelli All Boys Aktiv 89 / 78 40% 1 13.08.2026 -
Matías Canedo Rampla Juniors Aktiv 73 / 77 40% 1 12.08.2026 -
Baltazar Blum Macías Boca Juniors Aktiv 95 / 110 40% 2 07.08.2026 -
Felipe Schaare Racing Club Aktiv 92 / 93 40% 1 07.08.2026 -
Thiago Gómez Argentinos Juniors Aktiv 94 / 106 40% 1 07.08.2026 -
Nicolás Canteros Talleres Aktiv 83 / 93 40% 1 07.08.2026 -
Joaquín Soria Talleres Aktiv 91 / 87 40% 1 05.08.2026 -
Mateo Muñoz Vélez Aktiv 82 / 85 40% 1 05.08.2026 -
Gabriel Jesus Barcelona Aktiv 156 / 138 40% 1 04.08.2026 -
Mateo Seoane Gimnasia La Plata Aktiv 121 / 132 40% 1 04.08.2026 -
Franco Sivetti Gimnasia y Tiro Aktiv 115 / 120 40% 1 03.08.2026 -
Alexis Steimbach Gimnasia La Plata Aktiv 123 / 131 40% 1 03.08.2026 -
Thiago Villalba Vélez Aktiv 86 / 112 40% 1 03.08.2026 -
Gonzalo Escudero Racing Club Aktiv 100 / 118 40% 1 03.08.2026 -
Pol Lozano Espanyol Aktiv 122 / 137 40% 1 01.08.2026 -
Jesús Ricardo Angulo Toluca Aktiv 117 / 111 40% 1 01.08.2026 -
Chidera Ejuke Sevilla Aktiv 143 / 142 40% 1 01.08.2026 -